createdAt,value
2018-10-17T00:02:32.600Z,9.11
2018-10-17T00:05:37.165Z,9.01
2018-10-17T00:08:42.022Z,9.03
2018-10-17T00:11:46.632Z,8.98
2018-10-17T00:14:51.191Z,8.93
2018-10-17T00:17:55.844Z,8.83
2018-10-17T00:21:00.398Z,8.83
2018-10-17T00:24:05.378Z,8.86
2018-10-17T00:27:10.010Z,8.74
2018-10-17T00:30:14.625Z,8.81
2018-10-17T00:33:19.378Z,8.70
2018-10-17T00:36:23.992Z,8.64
2018-10-17T00:39:28.723Z,8.62
2018-10-17T00:42:33.350Z,8.56
2018-10-17T00:45:38.042Z,8.47
2018-10-17T00:48:42.810Z,8.56
2018-10-17T00:51:47.502Z,8.49
2018-10-17T00:54:52.280Z,8.37
2018-10-17T00:57:56.977Z,8.36
2018-10-17T01:01:01.713Z,8.40
2018-10-17T01:04:06.741Z,8.49
2018-10-17T01:07:11.433Z,8.43
2018-10-17T01:10:16.066Z,8.37
2018-10-17T01:13:20.834Z,8.40
2018-10-17T01:16:25.471Z,8.37
2018-10-17T01:19:30.352Z,8.20
2018-10-17T01:22:34.984Z,8.17
2018-10-17T01:25:39.579Z,8.23
2018-10-17T01:28:44.396Z,8.20
2018-10-17T01:31:49.003Z,8.18
2018-10-17T01:34:56.806Z,8.20
2018-10-17T01:38:01.588Z,8.21
2018-10-17T01:41:06.518Z,8.23
2018-10-17T01:44:11.062Z,8.12
2018-10-17T01:47:15.782Z,8.11
2018-10-17T01:50:20.393Z,7.99
2018-10-17T01:53:25.003Z,7.93
2018-10-17T01:56:29.640Z,8.01
2018-10-17T01:59:34.379Z,7.85
2018-10-17T02:02:38.981Z,7.88
2018-10-17T02:05:43.810Z,7.87
2018-10-17T02:08:48.427Z,7.78
2018-10-17T02:11:53.016Z,7.79
2018-10-17T02:14:57.602Z,7.82
2018-10-17T02:18:02.166Z,8.01
2018-10-17T02:21:07.276Z,7.85
2018-10-17T02:24:12.823Z,7.69
2018-10-17T02:27:17.493Z,7.63
2018-10-17T02:30:22.196Z,7.81
2018-10-17T02:33:26.884Z,7.71
2018-10-17T02:36:31.544Z,7.59
2018-10-17T02:39:36.226Z,7.56
2018-10-17T02:42:41.244Z,7.54
2018-10-17T02:45:45.896Z,7.42
2018-10-17T02:48:50.542Z,7.39
2018-10-17T02:51:55.642Z,7.47
2018-10-17T02:55:00.247Z,7.51
2018-10-17T02:58:05.193Z,7.32
2018-10-17T03:01:09.819Z,7.31
2018-10-17T03:04:14.585Z,7.28
2018-10-17T03:07:19.507Z,7.24
2018-10-17T03:10:24.060Z,7.16
2018-10-17T03:13:28.688Z,7.17
2018-10-17T03:16:33.335Z,7.19
2018-10-17T03:19:38.182Z,7.08
2018-10-17T03:22:42.955Z,7.04
2018-10-17T03:25:47.704Z,6.96
2018-10-17T03:28:52.565Z,7.05
2018-10-17T03:31:57.253Z,7.04
2018-10-17T03:35:01.956Z,7.11
2018-10-17T03:38:07.014Z,7.07
2018-10-17T03:41:11.842Z,7.13
2018-10-17T03:44:16.605Z,7.07
2018-10-17T03:47:21.299Z,7.00
2018-10-17T03:50:25.944Z,7.10
2018-10-17T03:53:30.806Z,7.15
2018-10-17T03:56:35.655Z,6.98
2018-10-17T03:59:40.488Z,6.83
2018-10-17T04:02:44.799Z,6.77
2018-10-17T04:05:49.428Z,6.82
2018-10-17T04:08:54.200Z,6.91
2018-10-17T04:11:59.021Z,6.84
2018-10-17T04:15:03.720Z,6.96
2018-10-17T04:18:08.297Z,6.98
2018-10-17T04:21:13.035Z,6.92
2018-10-17T04:24:17.845Z,6.84
2018-10-17T04:27:22.418Z,6.87
2018-10-17T04:30:27.100Z,6.91
2018-10-17T04:33:31.649Z,7.03
2018-10-17T04:36:36.303Z,7.16
2018-10-17T04:39:41.095Z,7.15
2018-10-17T04:42:45.743Z,7.05
2018-10-17T04:45:50.577Z,7.01
2018-10-17T04:48:55.480Z,6.95
2018-10-17T04:52:00.301Z,6.86
2018-10-17T04:55:05.910Z,6.69
2018-10-17T04:58:10.514Z,6.67
2018-10-17T05:01:15.385Z,6.71
2018-10-17T05:04:19.957Z,6.64
2018-10-17T05:07:24.699Z,6.61
2018-10-17T05:10:29.528Z,6.60
2018-10-17T05:13:34.279Z,6.65
2018-10-17T05:16:39.041Z,6.75
2018-10-17T05:19:43.751Z,6.72
2018-10-17T05:22:48.428Z,6.80
2018-10-17T05:25:53.015Z,6.92
2018-10-17T05:28:57.685Z,6.89
2018-10-17T05:32:02.208Z,6.91
2018-10-17T05:35:07.835Z,6.83
2018-10-17T05:38:12.509Z,6.77
2018-10-17T05:41:17.141Z,6.79
2018-10-17T05:44:21.813Z,6.93
2018-10-17T05:47:26.305Z,7.27
2018-10-17T05:50:30.956Z,7.30
2018-10-17T05:53:35.626Z,7.28
2018-10-17T05:56:40.440Z,7.45
2018-10-17T05:59:45.376Z,7.50
2018-10-17T06:02:49.988Z,7.67
2018-10-17T06:05:54.545Z,7.63
2018-10-17T06:08:59.561Z,7.56
2018-10-17T06:12:04.312Z,7.60
2018-10-17T06:15:08.954Z,7.69
2018-10-17T06:18:13.512Z,7.67
2018-10-17T06:21:18.347Z,7.54
2018-10-17T06:24:22.947Z,7.65
2018-10-17T06:27:27.672Z,7.77
2018-10-17T06:30:32.329Z,7.86
2018-10-17T06:33:37.002Z,7.88
2018-10-17T06:36:41.580Z,7.93
2018-10-17T06:39:46.245Z,7.95
2018-10-17T06:42:50.851Z,7.94
2018-10-17T06:45:55.473Z,8.07
2018-10-17T06:49:00.140Z,8.16
2018-10-17T06:52:04.781Z,8.08
2018-10-17T06:55:09.401Z,8.21
2018-10-17T06:58:13.968Z,8.26
2018-10-17T07:01:18.605Z,8.25
2018-10-17T07:04:23.127Z,8.30
2018-10-17T07:07:27.798Z,8.26
2018-10-17T07:10:32.360Z,8.33
2018-10-17T07:13:36.980Z,8.45
2018-10-17T07:16:41.657Z,8.52
2018-10-17T07:19:46.240Z,8.57
2018-10-17T07:22:51.026Z,8.40
2018-10-17T07:25:55.648Z,8.54
2018-10-17T07:29:00.310Z,8.59
2018-10-17T07:32:04.972Z,8.52
2018-10-17T07:35:10.975Z,8.58
2018-10-17T07:38:15.691Z,8.68
2018-10-17T07:41:20.319Z,8.83
2018-10-17T07:44:25.108Z,8.94
2018-10-17T07:47:29.751Z,9.19
2018-10-17T07:50:34.398Z,9.18
2018-10-17T07:53:39.138Z,9.64
2018-10-17T07:56:43.787Z,9.59
2018-10-17T07:59:48.434Z,9.80
2018-10-17T08:02:53.041Z,10.05
2018-10-17T08:05:57.695Z,10.04
2018-10-17T08:09:02.436Z,10.17
2018-10-17T08:12:07.204Z,10.13
2018-10-17T08:15:12.032Z,10.03
2018-10-17T08:18:16.786Z,10.01
2018-10-17T08:21:21.386Z,10.54
2018-10-17T08:24:25.948Z,10.58
2018-10-17T08:27:30.861Z,11.00
2018-10-17T08:30:35.359Z,11.21
2018-10-17T08:33:39.984Z,11.16
2018-10-17T08:36:45.098Z,11.50
2018-10-17T08:39:49.614Z,11.41
2018-10-17T08:42:54.503Z,11.16
2018-10-17T08:45:59.260Z,11.46
2018-10-17T08:49:04.057Z,11.95
2018-10-17T08:52:09.679Z,12.12
2018-10-17T08:55:14.301Z,12.19
2018-10-17T08:58:19.024Z,12.60
2018-10-17T09:01:23.576Z,12.39
2018-10-17T09:04:28.178Z,12.83
2018-10-17T09:07:32.839Z,12.88
2018-10-17T09:10:37.423Z,13.18
2018-10-17T09:13:42.124Z,13.19
2018-10-17T09:16:47.012Z,13.51
2018-10-17T09:19:51.834Z,13.52
2018-10-17T09:22:56.241Z,14.04
2018-10-17T09:26:00.965Z,13.93
2018-10-17T09:29:05.682Z,13.85
2018-10-17T09:32:10.296Z,13.95
2018-10-17T09:35:15.074Z,14.50
2018-10-17T09:38:19.843Z,14.38
2018-10-17T09:41:24.560Z,14.62
2018-10-17T09:44:29.661Z,15.13
2018-10-17T09:47:34.495Z,15.50
2018-10-17T09:50:39.282Z,15.97
2018-10-17T09:53:44.010Z,15.97
2018-10-17T09:56:48.778Z,15.64
2018-10-17T09:59:53.697Z,15.74
2018-10-17T10:02:58.348Z,16.36
2018-10-17T10:06:03.150Z,16.41
2018-10-17T10:09:10.490Z,16.07
2018-10-17T10:12:15.377Z,16.66
2018-10-17T10:15:19.936Z,16.87
2018-10-17T10:18:24.637Z,17.07
2018-10-17T10:21:29.506Z,17.32
2018-10-17T10:24:34.175Z,17.39
2018-10-17T10:27:40.553Z,17.75
2018-10-17T10:30:45.209Z,17.61
2018-10-17T10:33:49.883Z,18.18
2018-10-17T10:36:54.562Z,18.48
2018-10-17T10:39:59.188Z,18.53
2018-10-17T10:43:03.974Z,18.50
2018-10-17T10:46:09.009Z,18.89
2018-10-17T10:49:13.805Z,19.22
2018-10-17T10:52:18.336Z,19.40
2018-10-17T10:55:23.126Z,19.46
2018-10-17T10:58:28.115Z,19.48
2018-10-17T11:01:32.645Z,19.67
2018-10-17T11:04:43.699Z,19.72
2018-10-17T11:07:48.209Z,19.90
2018-10-17T11:10:53.009Z,19.75
2018-10-17T11:13:57.743Z,19.94
2018-10-17T11:17:02.506Z,20.38
2018-10-17T11:20:08.535Z,20.60
2018-10-17T11:23:14.020Z,20.68
2018-10-17T11:26:18.608Z,20.61
2018-10-17T11:29:23.484Z,20.67
2018-10-17T11:32:28.070Z,20.21
2018-10-17T11:35:32.678Z,20.46
2018-10-17T11:38:37.374Z,21.19
2018-10-17T11:41:42.311Z,21.05
2018-10-17T11:44:47.096Z,21.34
2018-10-17T11:47:51.854Z,21.34
2018-10-17T11:50:56.347Z,21.53
2018-10-17T11:54:02.117Z,21.45
2018-10-17T11:57:06.928Z,21.41
2018-10-17T12:00:13.334Z,21.53
2018-10-17T12:03:18.214Z,21.65
2018-10-17T12:06:22.820Z,21.45
2018-10-17T12:09:27.484Z,21.61
2018-10-17T12:12:32.234Z,21.83
2018-10-17T12:15:40.960Z,21.35
2018-10-17T12:18:45.591Z,21.20
2018-10-17T12:21:50.643Z,21.34
2018-10-17T12:24:55.453Z,21.69
2018-10-17T12:28:00.395Z,21.94
2018-10-17T12:31:05.274Z,21.76
2018-10-17T12:34:09.979Z,22.03
2018-10-17T12:37:14.625Z,22.13
2018-10-17T12:40:19.570Z,22.09
2018-10-17T12:43:24.140Z,22.39
2018-10-17T12:46:29.067Z,22.37
2018-10-17T12:49:34.111Z,22.46
2018-10-17T12:52:38.935Z,22.70
2018-10-17T12:55:44.033Z,22.75
2018-10-17T12:58:49.171Z,23.10
2018-10-17T13:01:54.227Z,22.83
2018-10-17T13:04:58.992Z,23.02
2018-10-17T13:08:03.794Z,22.91
2018-10-17T13:11:08.526Z,22.86
2018-10-17T13:14:13.366Z,22.72
2018-10-17T13:17:18.330Z,22.95
2018-10-17T13:20:23.072Z,23.13
2018-10-17T13:23:28.065Z,22.92
2018-10-17T13:26:32.705Z,22.94
2018-10-17T13:29:37.618Z,22.60
2018-10-17T13:32:42.345Z,22.69
2018-10-17T13:35:47.057Z,22.64
2018-10-17T13:38:51.706Z,22.80
2018-10-17T13:41:56.654Z,22.87
2018-10-17T13:45:01.773Z,22.88
2018-10-17T13:48:06.723Z,22.54
2018-10-17T13:51:11.813Z,22.36
2018-10-17T13:54:16.503Z,22.13
2018-10-17T13:57:21.341Z,22.11
2018-10-17T14:00:26.122Z,21.98
2018-10-17T14:03:30.763Z,21.99
2018-10-17T14:06:35.517Z,21.86
2018-10-17T14:09:40.165Z,21.64
2018-10-17T14:12:44.838Z,21.66
2018-10-17T14:15:49.567Z,21.65
2018-10-17T14:18:54.258Z,21.45
2018-10-17T14:21:59.029Z,21.22
2018-10-17T14:25:03.744Z,21.28
2018-10-17T14:28:08.681Z,21.13
2018-10-17T14:31:13.266Z,21.01
2018-10-17T14:34:17.980Z,20.90
2018-10-17T14:37:22.679Z,20.79
2018-10-17T14:40:27.423Z,20.56
2018-10-17T14:43:32.288Z,20.40
2018-10-17T14:46:37.038Z,20.31
2018-10-17T14:49:41.880Z,20.20
2018-10-17T14:52:46.562Z,19.98
2018-10-17T14:55:51.327Z,19.88
2018-10-17T14:58:55.935Z,19.75
2018-10-17T15:02:00.731Z,19.64
2018-10-17T15:05:05.521Z,19.51
2018-10-17T15:08:10.158Z,19.65
2018-10-17T15:11:15.007Z,19.57
2018-10-17T15:14:19.627Z,19.34
2018-10-17T15:17:24.560Z,19.31
2018-10-17T15:20:29.331Z,19.16
2018-10-17T15:23:34.089Z,19.12
2018-10-17T15:26:38.723Z,18.96
2018-10-17T15:29:43.315Z,18.82
2018-10-17T15:32:48.266Z,18.75
2018-10-17T15:35:52.963Z,18.73
2018-10-17T15:38:57.606Z,18.55
2018-10-17T15:42:02.473Z,18.38
2018-10-17T15:45:07.714Z,18.27
2018-10-17T15:48:12.413Z,18.20
2018-10-17T15:51:16.974Z,18.05
2018-10-17T15:54:21.612Z,17.82
2018-10-17T15:57:26.341Z,17.56
2018-10-17T16:00:30.897Z,17.51
2018-10-17T16:03:35.594Z,17.24
2018-10-17T16:06:40.238Z,17.14
2018-10-17T16:09:44.927Z,17.07
2018-10-17T16:12:49.568Z,16.93
2018-10-17T16:15:54.306Z,16.76
2018-10-17T16:18:58.868Z,16.65
2018-10-17T16:22:03.464Z,16.39
2018-10-17T16:25:08.856Z,16.15
2018-10-17T16:28:13.500Z,15.97
2018-10-17T16:31:18.151Z,15.77
2018-10-17T16:34:22.794Z,15.57
2018-10-17T16:37:27.455Z,15.48
2018-10-17T16:40:32.174Z,15.39
2018-10-17T16:43:36.964Z,15.46
2018-10-17T16:46:41.758Z,15.31
2018-10-17T16:49:46.540Z,15.24
2018-10-17T16:52:51.070Z,15.08
2018-10-17T16:55:55.618Z,14.89
2018-10-17T16:59:00.159Z,14.83
2018-10-17T17:02:05.309Z,14.64
2018-10-17T17:05:13.615Z,14.57
2018-10-17T17:08:18.212Z,14.36
2018-10-17T17:11:22.861Z,14.37
2018-10-17T17:14:27.812Z,14.30
2018-10-17T17:17:32.393Z,14.24
2018-10-17T17:20:37.134Z,14.12
2018-10-17T17:23:42.274Z,14.08
2018-10-17T17:26:46.968Z,13.99
2018-10-17T17:29:51.977Z,13.91
2018-10-17T17:32:56.784Z,13.78
2018-10-17T17:36:01.430Z,13.74
2018-10-17T17:39:08.569Z,13.62
2018-10-17T17:42:13.244Z,13.58
2018-10-17T17:45:17.988Z,13.54
2018-10-17T17:48:22.599Z,13.44
2018-10-17T17:51:27.357Z,13.30
2018-10-17T17:54:32.024Z,13.33
2018-10-17T17:57:36.758Z,13.29
2018-10-17T18:00:41.295Z,13.16
2018-10-17T18:03:45.981Z,13.03
2018-10-17T18:06:50.689Z,12.94
2018-10-17T18:09:55.312Z,12.93
2018-10-17T18:13:00.008Z,12.85
2018-10-17T18:16:04.660Z,12.88
2018-10-17T18:19:09.445Z,12.86
2018-10-17T18:22:14.153Z,12.78
2018-10-17T18:25:18.791Z,12.68
2018-10-17T18:28:23.431Z,12.60
2018-10-17T18:31:28.108Z,12.52
2018-10-17T18:34:32.720Z,12.62
2018-10-17T18:37:37.789Z,12.58
2018-10-17T18:40:42.791Z,12.36
2018-10-17T18:43:47.636Z,12.17
2018-10-17T18:46:52.310Z,12.14
2018-10-17T18:49:57.046Z,12.05
2018-10-17T18:53:01.900Z,12.06
2018-10-17T18:56:06.698Z,11.98
2018-10-17T18:59:11.361Z,12.03
2018-10-17T19:02:16.080Z,12.05
2018-10-17T19:05:20.823Z,12.05
2018-10-17T19:08:25.414Z,11.94
2018-10-17T19:11:30.130Z,11.81
2018-10-17T19:14:34.773Z,11.84
2018-10-17T19:17:39.354Z,11.81
2018-10-17T19:20:43.989Z,11.81
2018-10-17T19:23:48.805Z,11.71
2018-10-17T19:26:53.534Z,11.67
2018-10-17T19:29:58.339Z,11.59
2018-10-17T19:33:02.919Z,11.50
2018-10-17T19:36:07.693Z,11.37
2018-10-17T19:39:13.217Z,11.33
2018-10-17T19:42:17.721Z,11.41
2018-10-17T19:45:29.510Z,11.38
2018-10-17T19:48:34.864Z,11.39
2018-10-17T19:51:39.749Z,11.39
2018-10-17T19:54:44.458Z,11.33
2018-10-17T19:57:49.258Z,11.45
2018-10-17T20:00:54.179Z,11.39
2018-10-17T20:03:58.869Z,11.38
2018-10-17T20:07:03.614Z,11.37
2018-10-17T20:10:08.712Z,11.17
2018-10-17T20:13:13.564Z,11.02
2018-10-17T20:16:18.253Z,10.97
2018-10-17T20:19:22.921Z,11.06
2018-10-17T20:22:27.538Z,11.09
2018-10-17T20:25:39.415Z,11.07
2018-10-17T20:28:44.037Z,11.10
2018-10-17T20:31:48.698Z,10.94
2018-10-17T20:34:53.368Z,10.97
2018-10-17T20:37:57.925Z,10.89
2018-10-17T20:41:02.703Z,10.88
2018-10-17T20:44:07.506Z,10.86
2018-10-17T20:47:12.097Z,10.79
2018-10-17T20:50:16.863Z,10.63
2018-10-17T20:53:21.431Z,10.62
2018-10-17T20:56:26.044Z,10.49
2018-10-17T20:59:30.623Z,10.57
2018-10-17T21:02:35.339Z,10.58
2018-10-17T21:05:39.987Z,10.52
2018-10-17T21:08:44.649Z,10.44
2018-10-17T21:11:49.384Z,10.52
2018-10-17T21:14:53.959Z,10.35
2018-10-17T21:17:58.631Z,10.29
2018-10-17T21:21:03.319Z,10.30
2018-10-17T21:24:07.894Z,10.21
2018-10-17T21:27:12.586Z,10.23
2018-10-17T21:30:17.365Z,10.34
2018-10-17T21:33:22.085Z,10.25
2018-10-17T21:36:28.808Z,10.32
2018-10-17T21:39:33.451Z,10.22
2018-10-17T21:42:38.346Z,10.22
2018-10-17T21:45:43.059Z,10.10
2018-10-17T21:48:48.047Z,9.99
2018-10-17T21:51:52.647Z,9.92
2018-10-17T21:54:57.376Z,9.84
2018-10-17T21:58:01.980Z,9.83
2018-10-17T22:01:06.669Z,9.89
2018-10-17T22:04:11.367Z,9.88
2018-10-17T22:07:16.142Z,9.95
2018-10-17T22:10:20.889Z,9.96
2018-10-17T22:13:25.487Z,9.87
2018-10-17T22:16:35.496Z,9.90
2018-10-17T22:19:40.460Z,9.70
2018-10-17T22:22:45.479Z,9.55
2018-10-17T22:25:50.497Z,9.57
2018-10-17T22:28:55.207Z,9.47
2018-10-17T22:32:00.101Z,9.51
2018-10-17T22:35:04.785Z,9.61
2018-10-17T22:38:09.412Z,9.66
2018-10-17T22:41:14.276Z,9.53
2018-10-17T22:44:18.855Z,9.47
2018-10-17T22:47:23.568Z,9.37
2018-10-17T22:50:28.844Z,9.47
2018-10-17T22:53:33.513Z,9.50
2018-10-17T22:56:39.161Z,9.48
2018-10-17T22:59:44.045Z,9.46
2018-10-17T23:02:48.738Z,9.63
2018-10-17T23:05:53.295Z,9.53
2018-10-17T23:08:57.902Z,9.46
2018-10-17T23:12:02.556Z,9.29
2018-10-17T23:15:12.890Z,9.27
2018-10-17T23:18:17.514Z,9.16
2018-10-17T23:21:22.088Z,9.08
2018-10-17T23:24:26.646Z,9.08
2018-10-17T23:27:31.388Z,9.19
2018-10-17T23:30:35.939Z,9.15
2018-10-17T23:33:40.614Z,9.12
2018-10-17T23:36:45.329Z,9.14
2018-10-17T23:39:50.263Z,9.03
2018-10-17T23:42:54.956Z,8.98
2018-10-17T23:46:00.582Z,9.13
2018-10-17T23:49:05.436Z,9.05
2018-10-17T23:52:10.031Z,8.93
2018-10-17T23:55:14.798Z,8.88
2018-10-17T23:58:19.490Z,8.92
